sensor_id;sensor_type;location;lat;lon;timestamp;P1;durP1;ratioP1;P2;durP2;ratioP2
8268;SDS011;4174;48.304;16.364;2022-10-17T00:02:32;40.37;;;19.37;;
8268;SDS011;4174;48.304;16.364;2022-10-17T00:08:37;38.30;;;19.48;;
8268;SDS011;4174;48.304;16.364;2022-10-17T00:14:39;38.60;;;19.07;;
8268;SDS011;4174;48.304;16.364;2022-10-17T00:20:44;39.58;;;19.62;;
8268;SDS011;4174;48.304;16.364;2022-10-17T00:26:47;40.17;;;19.60;;
8268;SDS011;4174;48.304;16.364;2022-10-17T00:32:51;41.05;;;19.83;;
8268;SDS011;4174;48.304;16.364;2022-10-17T00:38:56;45.97;;;20.80;;
8268;SDS011;4174;48.304;16.364;2022-10-17T00:45:04;43.20;;;21.17;;
8268;SDS011;4174;48.304;16.364;2022-10-17T00:51:26;45.97;;;21.70;;
8268;SDS011;4174;48.304;16.364;2022-10-17T00:57:29;45.72;;;20.88;;
8268;SDS011;4174;48.304;16.364;2022-10-17T01:03:32;43.70;;;21.12;;
8268;SDS011;4174;48.304;16.364;2022-10-17T01:09:37;43.57;;;21.40;;
8268;SDS011;4174;48.304;16.364;2022-10-17T01:15:53;46.05;;;21.12;;
8268;SDS011;4174;48.304;16.364;2022-10-17T01:22:06;47.70;;;22.67;;
8268;SDS011;4174;48.304;16.364;2022-10-17T01:28:14;47.13;;;22.70;;
8268;SDS011;4174;48.304;16.364;2022-10-17T01:34:41;45.67;;;21.20;;
8268;SDS011;4174;48.304;16.364;2022-10-17T01:41:03;47.13;;;22.60;;
8268;SDS011;4174;48.304;16.364;2022-10-17T01:47:08;46.53;;;21.80;;
8268;SDS011;4174;48.304;16.364;2022-10-17T01:53:13;44.35;;;21.40;;
8268;SDS011;4174;48.304;16.364;2022-10-17T01:59:18;44.08;;;20.95;;
8268;SDS011;4174;48.304;16.364;2022-10-17T02:05:21;46.25;;;21.35;;
8268;SDS011;4174;48.304;16.364;2022-10-17T02:11:24;47.13;;;21.87;;
8268;SDS011;4174;48.304;16.364;2022-10-17T02:23:45;42.10;;;20.67;;
8268;SDS011;4174;48.304;16.364;2022-10-17T02:30:16;43.43;;;20.17;;
8268;SDS011;4174;48.304;16.364;2022-10-17T02:36:21;39.80;;;19.50;;
8268;SDS011;4174;48.304;16.364;2022-10-17T02:42:23;38.05;;;18.62;;
8268;SDS011;4174;48.304;16.364;2022-10-17T02:48:29;38.13;;;18.35;;
8268;SDS011;4174;48.304;16.364;2022-10-17T02:54:33;38.93;;;17.80;;
8268;SDS011;4174;48.304;16.364;2022-10-17T03:00:49;34.80;;;17.20;;
8268;SDS011;4174;48.304;16.364;2022-10-17T03:06:53;39.05;;;17.85;;
8268;SDS011;4174;48.304;16.364;2022-10-17T03:12:56;34.97;;;16.90;;
8268;SDS011;4174;48.304;16.364;2022-10-17T03:19:00;33.72;;;17.08;;
8268;SDS011;4174;48.304;16.364;2022-10-17T03:25:03;34.73;;;17.10;;
8268;SDS011;4174;48.304;16.364;2022-10-17T03:31:09;39.40;;;18.50;;
8268;SDS011;4174;48.304;16.364;2022-10-17T03:37:11;37.33;;;17.87;;
8268;SDS011;4174;48.304;16.364;2022-10-17T03:43:15;35.80;;;17.65;;
8268;SDS011;4174;48.304;16.364;2022-10-17T03:49:20;37.50;;;17.93;;
8268;SDS011;4174;48.304;16.364;2022-10-17T03:55:24;36.08;;;18.00;;
8268;SDS011;4174;48.304;16.364;2022-10-17T04:01:27;38.40;;;18.50;;
8268;SDS011;4174;48.304;16.364;2022-10-17T04:07:31;35.65;;;17.60;;
8268;SDS011;4174;48.304;16.364;2022-10-17T04:13:35;36.37;;;18.00;;
8268;SDS011;4174;48.304;16.364;2022-10-17T04:19:39;39.22;;;19.17;;
8268;SDS011;4174;48.304;16.364;2022-10-17T04:25:43;38.70;;;18.03;;
8268;SDS011;4174;48.304;16.364;2022-10-17T04:31:47;37.63;;;18.37;;
8268;SDS011;4174;48.304;16.364;2022-10-17T04:37:51;36.70;;;17.87;;
8268;SDS011;4174;48.304;16.364;2022-10-17T04:43:55;34.53;;;17.12;;
8268;SDS011;4174;48.304;16.364;2022-10-17T04:49:58;35.03;;;16.63;;
8268;SDS011;4174;48.304;16.364;2022-10-17T04:56:10;32.03;;;15.47;;
8268;SDS011;4174;48.304;16.364;2022-10-17T05:02:15;29.53;;;14.63;;
8268;SDS011;4174;48.304;16.364;2022-10-17T05:08:18;30.00;;;14.53;;
8268;SDS011;4174;48.304;16.364;2022-10-17T05:14:23;27.73;;;13.95;;
8268;SDS011;4174;48.304;16.364;2022-10-17T05:20:26;29.25;;;14.00;;
8268;SDS011;4174;48.304;16.364;2022-10-17T05:26:30;28.70;;;13.97;;
8268;SDS011;4174;48.304;16.364;2022-10-17T05:32:34;27.93;;;13.27;;
8268;SDS011;4174;48.304;16.364;2022-10-17T05:38:39;27.70;;;13.77;;
8268;SDS011;4174;48.304;16.364;2022-10-17T05:44:43;28.15;;;13.80;;
8268;SDS011;4174;48.304;16.364;2022-10-17T05:50:47;26.05;;;13.32;;
8268;SDS011;4174;48.304;16.364;2022-10-17T05:56:51;28.08;;;13.93;;
8268;SDS011;4174;48.304;16.364;2022-10-17T06:02:53;28.87;;;12.97;;
8268;SDS011;4174;48.304;16.364;2022-10-17T06:08:57;29.03;;;13.20;;
8268;SDS011;4174;48.304;16.364;2022-10-17T06:15:02;26.17;;;13.27;;
8268;SDS011;4174;48.304;16.364;2022-10-17T06:21:08;25.80;;;12.48;;
8268;SDS011;4174;48.304;16.364;2022-10-17T06:27:10;25.10;;;12.60;;
8268;SDS011;4174;48.304;16.364;2022-10-17T06:33:14;23.65;;;12.30;;
8268;SDS011;4174;48.304;16.364;2022-10-17T06:39:19;23.70;;;11.73;;
8268;SDS011;4174;48.304;16.364;2022-10-17T06:45:22;21.53;;;11.30;;
8268;SDS011;4174;48.304;16.364;2022-10-17T06:51:27;22.90;;;12.18;;
8268;SDS011;4174;48.304;16.364;2022-10-17T06:57:30;23.20;;;11.43;;
8268;SDS011;4174;48.304;16.364;2022-10-17T07:03:34;22.98;;;11.65;;
8268;SDS011;4174;48.304;16.364;2022-10-17T07:09:38;23.60;;;11.50;;
8268;SDS011;4174;48.304;16.364;2022-10-17T07:15:42;24.20;;;11.73;;
8268;SDS011;4174;48.304;16.364;2022-10-17T07:21:45;23.58;;;12.05;;
8268;SDS011;4174;48.304;16.364;2022-10-17T07:27:49;23.42;;;12.23;;
8268;SDS011;4174;48.304;16.364;2022-10-17T07:33:52;24.50;;;11.90;;
8268;SDS011;4174;48.304;16.364;2022-10-17T07:39:56;26.40;;;12.93;;
8268;SDS011;4174;48.304;16.364;2022-10-17T07:46:00;27.97;;;13.20;;
8268;SDS011;4174;48.304;16.364;2022-10-17T07:52:02;25.67;;;12.60;;
8268;SDS011;4174;48.304;16.364;2022-10-17T07:58:08;24.43;;;12.73;;
8268;SDS011;4174;48.304;16.364;2022-10-17T08:04:11;24.00;;;12.95;;
8268;SDS011;4174;48.304;16.364;2022-10-17T08:10:15;22.27;;;11.35;;
8268;SDS011;4174;48.304;16.364;2022-10-17T08:16:19;26.25;;;13.88;;
8268;SDS011;4174;48.304;16.364;2022-10-17T08:22:23;25.98;;;13.10;;
8268;SDS011;4174;48.304;16.364;2022-10-17T08:28:28;25.80;;;13.40;;
8268;SDS011;4174;48.304;16.364;2022-10-17T08:34:32;24.40;;;13.15;;
8268;SDS011;4174;48.304;16.364;2022-10-17T08:40:35;24.65;;;13.13;;
8268;SDS011;4174;48.304;16.364;2022-10-17T08:46:40;23.42;;;13.10;;
8268;SDS011;4174;48.304;16.364;2022-10-17T08:52:46;24.77;;;13.10;;
8268;SDS011;4174;48.304;16.364;2022-10-17T08:58:48;24.47;;;13.40;;
8268;SDS011;4174;48.304;16.364;2022-10-17T09:05:00;27.48;;;13.25;;
8268;SDS011;4174;48.304;16.364;2022-10-17T09:11:33;24.03;;;12.80;;
8268;SDS011;4174;48.304;16.364;2022-10-17T09:17:41;25.40;;;13.73;;
8268;SDS011;4174;48.304;16.364;2022-10-17T09:23:49;23.92;;;13.05;;
8268;SDS011;4174;48.304;16.364;2022-10-17T09:29:52;25.10;;;13.83;;
8268;SDS011;4174;48.304;16.364;2022-10-17T09:35:53;26.73;;;13.57;;
8268;SDS011;4174;48.304;16.364;2022-10-17T09:41:57;27.70;;;14.17;;
8268;SDS011;4174;48.304;16.364;2022-10-17T09:54:15;28.33;;;13.80;;
8268;SDS011;4174;48.304;16.364;2022-10-17T10:00:29;27.33;;;13.60;;
8268;SDS011;4174;48.304;16.364;2022-10-17T10:06:32;25.50;;;13.50;;
8268;SDS011;4174;48.304;16.364;2022-10-17T10:12:37;24.97;;;12.73;;
8268;SDS011;4174;48.304;16.364;2022-10-17T10:18:39;25.75;;;13.57;;
8268;SDS011;4174;48.304;16.364;2022-10-17T10:24:43;24.35;;;13.35;;
8268;SDS011;4174;48.304;16.364;2022-10-17T10:30:47;24.63;;;12.10;;
8268;SDS011;4174;48.304;16.364;2022-10-17T10:36:55;26.93;;;13.50;;
8268;SDS011;4174;48.304;16.364;2022-10-17T10:42:58;22.70;;;12.50;;
8268;SDS011;4174;48.304;16.364;2022-10-17T10:49:00;22.87;;;11.93;;
8268;SDS011;4174;48.304;16.364;2022-10-17T10:55:12;21.00;;;11.30;;
8268;SDS011;4174;48.304;16.364;2022-10-17T11:01:42;24.97;;;11.83;;
8268;SDS011;4174;48.304;16.364;2022-10-17T11:08:04;20.80;;;11.40;;
8268;SDS011;4174;48.304;16.364;2022-10-17T11:14:12;23.25;;;12.37;;
8268;SDS011;4174;48.304;16.364;2022-10-17T11:20:18;19.90;;;11.12;;
8268;SDS011;4174;48.304;16.364;2022-10-17T11:26:25;22.83;;;11.30;;
8268;SDS011;4174;48.304;16.364;2022-10-17T11:32:38;19.10;;;10.05;;
8268;SDS011;4174;48.304;16.364;2022-10-17T11:38:58;19.35;;;10.10;;
8268;SDS011;4174;48.304;16.364;2022-10-17T11:45:03;20.70;;;11.40;;
8268;SDS011;4174;48.304;16.364;2022-10-17T11:51:08;18.65;;;10.32;;
8268;SDS011;4174;48.304;16.364;2022-10-17T11:57:24;20.40;;;10.60;;
8268;SDS011;4174;48.304;16.364;2022-10-17T12:10:17;18.02;;;10.18;;
8268;SDS011;4174;48.304;16.364;2022-10-17T12:22:47;18.15;;;9.90;;
8268;SDS011;4174;48.304;16.364;2022-10-17T12:28:49;18.43;;;10.87;;
8268;SDS011;4174;48.304;16.364;2022-10-17T12:34:53;17.95;;;9.88;;
8268;SDS011;4174;48.304;16.364;2022-10-17T12:40:55;18.90;;;10.60;;
8268;SDS011;4174;48.304;16.364;2022-10-17T12:53:42;17.05;;;9.85;;
8268;SDS011;4174;48.304;16.364;2022-10-17T13:00:00;16.40;;;9.30;;
8268;SDS011;4174;48.304;16.364;2022-10-17T13:06:05;18.27;;;9.10;;
8268;SDS011;4174;48.304;16.364;2022-10-17T13:12:11;17.15;;;9.13;;
8268;SDS011;4174;48.304;16.364;2022-10-17T13:18:19;19.20;;;9.68;;
8268;SDS011;4174;48.304;16.364;2022-10-17T13:24:30;17.43;;;8.53;;
8268;SDS011;4174;48.304;16.364;2022-10-17T13:30:33;15.77;;;9.45;;
8268;SDS011;4174;48.304;16.364;2022-10-17T13:36:35;16.87;;;8.70;;
8268;SDS011;4174;48.304;16.364;2022-10-17T13:42:39;15.90;;;8.88;;
8268;SDS011;4174;48.304;16.364;2022-10-17T13:48:43;17.00;;;8.67;;
8268;SDS011;4174;48.304;16.364;2022-10-17T13:54:47;17.52;;;9.27;;
8268;SDS011;4174;48.304;16.364;2022-10-17T14:00:49;17.55;;;9.80;;
8268;SDS011;4174;48.304;16.364;2022-10-17T14:06:52;14.40;;;8.90;;
8268;SDS011;4174;48.304;16.364;2022-10-17T14:12:56;17.70;;;9.73;;
8268;SDS011;4174;48.304;16.364;2022-10-17T14:18:59;16.80;;;10.00;;
8268;SDS011;4174;48.304;16.364;2022-10-17T14:25:04;17.45;;;9.98;;
8268;SDS011;4174;48.304;16.364;2022-10-17T14:31:12;18.65;;;10.15;;
8268;SDS011;4174;48.304;16.364;2022-10-17T14:37:28;16.23;;;9.03;;
8268;SDS011;4174;48.304;16.364;2022-10-17T14:43:38;16.93;;;9.70;;
8268;SDS011;4174;48.304;16.364;2022-10-17T14:49:41;16.73;;;9.03;;
8268;SDS011;4174;48.304;16.364;2022-10-17T15:01:56;16.17;;;8.43;;
8268;SDS011;4174;48.304;16.364;2022-10-17T15:08:00;15.15;;;8.60;;
8268;SDS011;4174;48.304;16.364;2022-10-17T15:14:04;17.23;;;8.30;;
8268;SDS011;4174;48.304;16.364;2022-10-17T15:20:11;13.65;;;7.97;;
8268;SDS011;4174;48.304;16.364;2022-10-17T15:26:15;14.27;;;7.53;;
8268;SDS011;4174;48.304;16.364;2022-10-17T15:32:25;14.87;;;7.50;;
8268;SDS011;4174;48.304;16.364;2022-10-17T15:38:29;16.10;;;7.67;;
8268;SDS011;4174;48.304;16.364;2022-10-17T15:44:33;15.20;;;7.57;;
8268;SDS011;4174;48.304;16.364;2022-10-17T15:50:36;14.63;;;7.53;;
8268;SDS011;4174;48.304;16.364;2022-10-17T15:56:40;12.80;;;7.00;;
8268;SDS011;4174;48.304;16.364;2022-10-17T16:02:44;13.93;;;6.63;;
8268;SDS011;4174;48.304;16.364;2022-10-17T16:08:46;14.27;;;6.57;;
8268;SDS011;4174;48.304;16.364;2022-10-17T16:14:49;12.97;;;6.20;;
8268;SDS011;4174;48.304;16.364;2022-10-17T16:20:53;11.77;;;6.40;;
8268;SDS011;4174;48.304;16.364;2022-10-17T16:26:56;11.80;;;6.30;;
8268;SDS011;4174;48.304;16.364;2022-10-17T16:33:00;11.50;;;6.37;;
8268;SDS011;4174;48.304;16.364;2022-10-17T16:39:04;12.40;;;6.00;;
8268;SDS011;4174;48.304;16.364;2022-10-17T16:45:07;13.20;;;6.13;;
8268;SDS011;4174;48.304;16.364;2022-10-17T16:51:20;12.33;;;6.00;;
8268;SDS011;4174;48.304;16.364;2022-10-17T16:57:23;12.65;;;5.95;;
8268;SDS011;4174;48.304;16.364;2022-10-17T17:03:26;10.27;;;5.47;;
8268;SDS011;4174;48.304;16.364;2022-10-17T17:09:29;11.93;;;5.40;;
8268;SDS011;4174;48.304;16.364;2022-10-17T17:15:33;11.17;;;5.50;;
8268;SDS011;4174;48.304;16.364;2022-10-17T17:21:38;11.10;;;5.40;;
8268;SDS011;4174;48.304;16.364;2022-10-17T17:27:41;11.35;;;4.93;;
8268;SDS011;4174;48.304;16.364;2022-10-17T17:33:45;10.93;;;5.60;;
8268;SDS011;4174;48.304;16.364;2022-10-17T17:39:48;10.90;;;5.20;;
8268;SDS011;4174;48.304;16.364;2022-10-17T17:45:52;10.40;;;5.30;;
8268;SDS011;4174;48.304;16.364;2022-10-17T17:51:55;12.23;;;5.30;;
8268;SDS011;4174;48.304;16.364;2022-10-17T17:57:59;11.95;;;5.55;;
8268;SDS011;4174;48.304;16.364;2022-10-17T18:04:02;11.50;;;5.50;;
8268;SDS011;4174;48.304;16.364;2022-10-17T18:10:06;10.47;;;5.10;;
8268;SDS011;4174;48.304;16.364;2022-10-17T18:16:10;11.80;;;5.20;;
8268;SDS011;4174;48.304;16.364;2022-10-17T18:22:13;11.48;;;5.68;;
8268;SDS011;4174;48.304;16.364;2022-10-17T18:28:17;12.18;;;5.72;;
8268;SDS011;4174;48.304;16.364;2022-10-17T18:34:21;13.00;;;6.30;;
8268;SDS011;4174;48.304;16.364;2022-10-17T18:40:25;12.95;;;5.78;;
8268;SDS011;4174;48.304;16.364;2022-10-17T18:46:30;12.50;;;6.10;;
8268;SDS011;4174;48.304;16.364;2022-10-17T18:52:32;12.75;;;5.90;;
8268;SDS011;4174;48.304;16.364;2022-10-17T18:58:37;12.73;;;6.30;;
8268;SDS011;4174;48.304;16.364;2022-10-17T19:04:40;12.80;;;6.37;;
8268;SDS011;4174;48.304;16.364;2022-10-17T19:10:45;13.73;;;6.60;;
8268;SDS011;4174;48.304;16.364;2022-10-17T19:16:50;14.63;;;7.07;;
8268;SDS011;4174;48.304;16.364;2022-10-17T19:22:54;14.80;;;6.97;;
8268;SDS011;4174;48.304;16.364;2022-10-17T19:28:58;13.30;;;6.57;;
8268;SDS011;4174;48.304;16.364;2022-10-17T19:35:01;13.82;;;6.82;;
8268;SDS011;4174;48.304;16.364;2022-10-17T19:41:08;15.50;;;6.40;;
8268;SDS011;4174;48.304;16.364;2022-10-17T19:47:10;14.15;;;6.55;;
8268;SDS011;4174;48.304;16.364;2022-10-17T19:53:15;12.80;;;6.87;;
8268;SDS011;4174;48.304;16.364;2022-10-17T19:59:18;12.73;;;6.80;;
8268;SDS011;4174;48.304;16.364;2022-10-17T20:05:22;13.73;;;6.90;;
8268;SDS011;4174;48.304;16.364;2022-10-17T20:11:26;13.10;;;6.90;;
8268;SDS011;4174;48.304;16.364;2022-10-17T20:17:29;13.70;;;7.07;;
8268;SDS011;4174;48.304;16.364;2022-10-17T20:23:34;14.07;;;6.97;;
8268;SDS011;4174;48.304;16.364;2022-10-17T20:29:38;15.50;;;7.05;;
8268;SDS011;4174;48.304;16.364;2022-10-17T20:35:43;13.68;;;6.47;;
8268;SDS011;4174;48.304;16.364;2022-10-17T20:41:46;13.15;;;6.90;;
8268;SDS011;4174;48.304;16.364;2022-10-17T20:47:51;15.70;;;6.75;;
8268;SDS011;4174;48.304;16.364;2022-10-17T20:53:55;14.13;;;6.97;;
8268;SDS011;4174;48.304;16.364;2022-10-17T20:59:59;16.00;;;6.93;;
8268;SDS011;4174;48.304;16.364;2022-10-17T21:06:03;14.38;;;7.03;;
8268;SDS011;4174;48.304;16.364;2022-10-17T21:12:08;13.57;;;7.30;;
8268;SDS011;4174;48.304;16.364;2022-10-17T21:18:12;14.30;;;7.20;;
8268;SDS011;4174;48.304;16.364;2022-10-17T21:24:16;13.30;;;7.22;;
8268;SDS011;4174;48.304;16.364;2022-10-17T21:30:19;15.80;;;7.90;;
8268;SDS011;4174;48.304;16.364;2022-10-17T21:36:25;16.63;;;7.70;;
8268;SDS011;4174;48.304;16.364;2022-10-17T21:42:27;14.10;;;7.40;;
8268;SDS011;4174;48.304;16.364;2022-10-17T21:48:31;15.43;;;7.80;;
8268;SDS011;4174;48.304;16.364;2022-10-17T21:54:33;15.32;;;7.82;;
8268;SDS011;4174;48.304;16.364;2022-10-17T22:00:38;14.53;;;7.73;;
8268;SDS011;4174;48.304;16.364;2022-10-17T22:06:43;17.25;;;7.70;;
8268;SDS011;4174;48.304;16.364;2022-10-17T22:12:45;16.83;;;7.43;;
8268;SDS011;4174;48.304;16.364;2022-10-17T22:18:50;15.43;;;7.57;;
8268;SDS011;4174;48.304;16.364;2022-10-17T22:24:53;15.13;;;7.37;;
8268;SDS011;4174;48.304;16.364;2022-10-17T22:30:57;13.43;;;7.40;;
8268;SDS011;4174;48.304;16.364;2022-10-17T22:37:01;15.82;;;7.75;;
8268;SDS011;4174;48.304;16.364;2022-10-17T22:43:04;15.03;;;7.70;;
8268;SDS011;4174;48.304;16.364;2022-10-17T22:49:08;14.77;;;7.33;;
8268;SDS011;4174;48.304;16.364;2022-10-17T22:55:12;13.73;;;7.50;;
8268;SDS011;4174;48.304;16.364;2022-10-17T23:01:18;14.57;;;7.77;;
8268;SDS011;4174;48.304;16.364;2022-10-17T23:07:20;15.00;;;7.85;;
8268;SDS011;4174;48.304;16.364;2022-10-17T23:13:24;13.73;;;7.43;;
8268;SDS011;4174;48.304;16.364;2022-10-17T23:19:29;14.90;;;7.40;;
8268;SDS011;4174;48.304;16.364;2022-10-17T23:25:32;16.08;;;7.78;;
8268;SDS011;4174;48.304;16.364;2022-10-17T23:31:34;14.83;;;6.93;;
8268;SDS011;4174;48.304;16.364;2022-10-17T23:37:38;13.80;;;7.20;;
8268;SDS011;4174;48.304;16.364;2022-10-17T23:43:42;15.10;;;7.17;;
8268;SDS011;4174;48.304;16.364;2022-10-17T23:49:45;16.30;;;7.50;;
8268;SDS011;4174;48.304;16.364;2022-10-17T23:55:49;13.87;;;7.43;;
